createdAt,value
2022-10-17T04:02:35.204Z,97.62
2022-10-17T04:05:02.172Z,97.71
2022-10-17T04:07:29.141Z,97.43
2022-10-17T04:09:55.645Z,97.28
2022-10-17T04:12:22.186Z,97.42
2022-10-17T04:14:48.708Z,97.11
2022-10-17T04:17:15.219Z,96.90
2022-10-17T04:19:41.687Z,96.83
2022-10-17T04:22:08.520Z,96.62
2022-10-17T04:24:35.084Z,96.66
2022-10-17T04:27:01.971Z,96.50
2022-10-17T04:29:28.688Z,96.15
2022-10-17T04:31:56.006Z,96.13
2022-10-17T04:34:22.479Z,95.89
2022-10-17T04:36:48.970Z,95.75
2022-10-17T04:39:15.571Z,95.74
2022-10-17T04:41:42.412Z,95.84
2022-10-17T04:44:10.611Z,95.43
2022-10-17T04:46:37.267Z,95.44
2022-10-17T04:49:03.878Z,95.52
2022-10-17T04:51:30.474Z,95.62
2022-10-17T04:53:56.998Z,95.61
2022-10-17T04:56:25.014Z,95.62
2022-10-17T04:58:52.132Z,95.75
2022-10-17T05:01:21.350Z,95.70
2022-10-17T05:03:48.144Z,95.70
2022-10-17T05:06:17.382Z,95.78
2022-10-17T05:08:44.362Z,95.76
2022-10-17T05:11:24.273Z,95.73
2022-10-17T05:13:59.898Z,95.70
2022-10-17T05:16:27.793Z,95.77
2022-10-17T05:18:57.536Z,95.68
2022-10-17T05:21:26.140Z,95.62
2022-10-17T05:23:52.926Z,95.60
2022-10-17T05:26:20.351Z,95.74
2022-10-17T05:28:47.010Z,95.50
2022-10-17T05:31:13.810Z,95.54
2022-10-17T05:33:40.467Z,95.64
2022-10-17T05:36:07.952Z,95.65
2022-10-17T05:38:34.705Z,95.63
2022-10-17T05:41:03.704Z,95.73
2022-10-17T05:43:31.181Z,95.66
2022-10-17T05:45:57.865Z,95.64
2022-10-17T05:48:24.495Z,95.75
2022-10-17T05:51:01.703Z,95.83
2022-10-17T05:53:32.127Z,95.95
2022-10-17T05:56:00.653Z,95.88
2022-10-17T05:58:52.345Z,96.12
2022-10-17T06:01:21.024Z,96.13
2022-10-17T06:03:47.594Z,96.26
2022-10-17T06:06:15.203Z,96.34
2022-10-17T06:08:42.147Z,96.34
2022-10-17T06:11:10.253Z,96.10
2022-10-17T06:13:37.970Z,96.20
2022-10-17T06:16:04.816Z,96.13
2022-10-17T06:18:31.580Z,95.87
2022-10-17T06:21:06.736Z,95.92
2022-10-17T06:23:33.788Z,95.63
2022-10-17T06:26:02.036Z,95.57
2022-10-17T06:28:28.946Z,95.62
2022-10-17T06:30:55.865Z,95.60
2022-10-17T06:33:23.453Z,95.54
2022-10-17T06:35:54.611Z,95.36
2022-10-17T06:38:21.924Z,95.05
2022-10-17T06:40:48.482Z,94.82
2022-10-17T06:43:15.385Z,94.53
2022-10-17T06:45:42.199Z,94.66
2022-10-17T06:48:08.987Z,94.40
2022-10-17T06:50:35.916Z,94.26
2022-10-17T06:53:02.726Z,94.05
2022-10-17T06:55:29.242Z,94.12
2022-10-17T06:57:56.590Z,94.16
2022-10-17T07:00:23.579Z,94.31
2022-10-17T07:02:50.514Z,94.35
2022-10-17T07:05:19.206Z,94.38
2022-10-17T07:07:47.479Z,94.45
2022-10-17T07:10:16.232Z,93.97
2022-10-17T07:12:44.740Z,93.80
2022-10-17T07:15:11.863Z,94.02
2022-10-17T07:17:38.441Z,93.83
2022-10-17T07:20:05.365Z,93.88
2022-10-17T07:22:31.884Z,93.90
2022-10-17T07:24:58.387Z,94.15
2022-10-17T07:27:25.025Z,94.07
2022-10-17T07:29:51.533Z,94.25
2022-10-17T07:32:18.035Z,94.17
2022-10-17T07:34:44.549Z,94.45
2022-10-17T07:37:11.873Z,94.29
2022-10-17T07:39:40.005Z,94.08
2022-10-17T07:42:07.773Z,94.22
2022-10-17T07:44:35.492Z,94.44
2022-10-17T07:47:02.681Z,95.12
2022-10-17T07:49:29.460Z,95.68
2022-10-17T07:51:56.119Z,96.04
2022-10-17T07:54:22.717Z,96.40
2022-10-17T07:56:50.659Z,96.54
2022-10-17T07:59:20.305Z,96.65
2022-10-17T08:01:46.976Z,96.85
2022-10-17T08:04:13.529Z,96.99
2022-10-17T08:06:40.052Z,97.16
2022-10-17T08:09:06.677Z,97.32
2022-10-17T08:11:33.390Z,97.60
2022-10-17T08:13:59.897Z,97.68
2022-10-17T08:16:26.569Z,97.69
2022-10-17T08:18:53.659Z,97.83
2022-10-17T08:21:20.218Z,97.59
2022-10-17T08:23:46.901Z,97.70
2022-10-17T08:26:16.863Z,97.74
2022-10-17T08:28:43.895Z,97.82
2022-10-17T08:31:13.455Z,97.84
2022-10-17T08:33:41.506Z,97.93
2022-10-17T08:36:09.335Z,98.07
2022-10-17T08:38:37.600Z,98.12
2022-10-17T08:41:11.929Z,98.29
2022-10-17T08:44:04.898Z,98.43
2022-10-17T08:46:35.539Z,98.62
2022-10-17T08:49:08.725Z,98.58
2022-10-17T08:51:51.651Z,98.67
2022-10-17T08:54:23.989Z,98.88
2022-10-17T08:56:53.077Z,98.88
2022-10-17T08:59:31.488Z,98.96
2022-10-17T09:02:38.201Z,99.03
2022-10-17T09:05:32.355Z,98.71
2022-10-17T09:08:01.874Z,98.65
2022-10-17T09:10:55.454Z,98.80
2022-10-17T09:13:44.070Z,98.90
2022-10-17T09:16:17.212Z,99.05
2022-10-17T09:18:47.741Z,98.72
2022-10-17T09:21:43.512Z,98.57
2022-10-17T09:24:25.386Z,98.84
2022-10-17T09:26:53.563Z,99.01
2022-10-17T09:29:27.013Z,98.99
2022-10-17T09:32:13.725Z,99.15
2022-10-17T09:34:40.448Z,99.00
2022-10-17T09:37:14.569Z,99.06
2022-10-17T09:39:42.319Z,98.80
2022-10-17T09:42:14.489Z,98.87
2022-10-17T09:45:01.512Z,98.84
2022-10-17T09:47:53.093Z,98.98
2022-10-17T09:50:30.380Z,98.97
2022-10-17T09:53:02.725Z,98.78
2022-10-17T09:55:45.664Z,98.65
2022-10-17T09:58:12.445Z,98.36
2022-10-17T10:00:47.549Z,98.18
2022-10-17T10:03:22.706Z,98.33
2022-10-17T10:06:20.563Z,97.93
2022-10-17T10:08:51.774Z,97.96
2022-10-17T10:11:22.576Z,98.00
2022-10-17T10:13:50.022Z,98.12
2022-10-17T10:16:31.556Z,98.17
2022-10-17T10:18:59.078Z,97.88
2022-10-17T10:21:28.682Z,97.58
2022-10-17T10:24:12.325Z,97.39
2022-10-17T10:26:47.360Z,97.15
2022-10-17T10:29:36.552Z,97.25
2022-10-17T10:32:11.428Z,97.33
2022-10-17T10:34:45.521Z,97.05
2022-10-17T10:37:30.756Z,97.01
2022-10-17T10:39:59.504Z,97.03
2022-10-17T10:42:32.951Z,96.94
2022-10-17T10:45:04.255Z,97.04
2022-10-17T10:47:32.973Z,96.77
2022-10-17T10:50:21.975Z,96.16
2022-10-17T10:53:38.649Z,96.21
2022-10-17T10:56:05.260Z,96.10
2022-10-17T10:58:53.169Z,95.86
2022-10-17T11:01:29.707Z,95.81
2022-10-17T11:04:01.869Z,95.90
2022-10-17T11:06:34.663Z,95.90
2022-10-17T11:09:18.250Z,96.04
2022-10-17T11:11:50.046Z,96.28
2022-10-17T11:14:24.758Z,95.96
2022-10-17T11:17:31.043Z,96.15
2022-10-17T11:20:12.621Z,96.00
2022-10-17T11:22:52.373Z,96.32
2022-10-17T11:25:36.587Z,96.13
2022-10-17T11:28:10.660Z,95.72
2022-10-17T11:33:20.222Z,95.70
2022-10-17T11:35:50.368Z,95.78
2022-10-17T11:38:21.510Z,95.82
2022-10-17T11:40:55.283Z,95.57
2022-10-17T11:43:30.971Z,95.52
2022-10-17T11:46:12.288Z,95.27
2022-10-17T11:48:48.986Z,94.79
2022-10-17T11:54:16.795Z,93.78
2022-10-17T11:57:13.871Z,92.82
2022-10-17T12:00:12.142Z,92.69
2022-10-17T12:03:02.761Z,92.18
2022-10-17T12:06:01.478Z,92.07
2022-10-17T12:08:31.464Z,92.24
2022-10-17T12:11:14.738Z,92.70
2022-10-17T12:13:41.925Z,93.14
2022-10-17T12:16:34.451Z,93.28
2022-10-17T12:19:00.985Z,93.53
2022-10-17T12:21:31.471Z,93.58
2022-10-17T12:23:58.815Z,93.73
2022-10-17T12:26:29.913Z,93.84
2022-10-17T12:28:57.567Z,93.53
2022-10-17T12:31:32.514Z,93.60
2022-10-17T12:34:03.240Z,93.33
2022-10-17T12:36:29.718Z,93.39
2022-10-17T12:39:01.958Z,93.51
2022-10-17T12:41:40.822Z,93.25
2022-10-17T12:44:28.764Z,92.87
2022-10-17T12:47:05.080Z,92.95
2022-10-17T12:49:40.739Z,92.85
2022-10-17T12:52:22.360Z,92.85
2022-10-17T12:55:12.599Z,92.73
2022-10-17T12:57:46.987Z,92.72
2022-10-17T13:00:25.634Z,92.55
2022-10-17T13:02:56.324Z,92.48
2022-10-17T13:05:28.480Z,92.43
2022-10-17T13:07:56.018Z,92.44
2022-10-17T13:13:08.599Z,91.86
2022-10-17T13:15:37.025Z,91.71
2022-10-17T13:18:04.214Z,91.50
2022-10-17T13:20:31.978Z,91.40
2022-10-17T13:22:59.673Z,91.29
2022-10-17T13:25:27.850Z,91.23
2022-10-17T13:28:06.006Z,91.58
2022-10-17T13:30:35.831Z,91.45
2022-10-17T13:33:03.250Z,91.54
2022-10-17T13:38:28.715Z,91.93
2022-10-17T13:41:05.812Z,91.23
2022-10-17T13:43:42.963Z,90.86
2022-10-17T13:46:36.723Z,90.62
2022-10-17T13:49:17.751Z,90.52
2022-10-17T13:51:50.981Z,90.50
2022-10-17T13:54:33.044Z,90.32
2022-10-17T13:57:00.738Z,90.13
2022-10-17T13:59:59.269Z,90.14
2022-10-17T14:02:28.715Z,89.77
2022-10-17T14:05:17.375Z,89.73
2022-10-17T14:08:20.216Z,89.49
2022-10-17T14:10:46.309Z,89.28
2022-10-17T14:13:24.674Z,88.46
2022-10-17T14:15:53.730Z,88.20
2022-10-17T14:18:33.428Z,88.15
2022-10-17T14:24:11.353Z,87.16
2022-10-17T14:26:47.797Z,86.81
2022-10-17T14:29:25.451Z,86.42
2022-10-17T14:31:59.769Z,86.17
2022-10-17T14:34:39.211Z,86.23
2022-10-17T14:37:31.047Z,86.09
2022-10-17T14:40:02.850Z,85.98
2022-10-17T14:42:29.525Z,86.27
2022-10-17T14:45:05.586Z,86.57
2022-10-17T14:47:43.096Z,86.39
2022-10-17T14:50:10.539Z,86.53
2022-10-17T14:53:11.719Z,86.63
2022-10-17T14:55:40.721Z,86.88
2022-10-17T14:58:18.782Z,87.22
2022-10-17T15:00:45.295Z,87.04
2022-10-17T15:03:12.561Z,87.19
2022-10-17T15:05:39.784Z,87.40
2022-10-17T15:08:13.941Z,88.00
2022-10-17T15:10:43.537Z,88.62
2022-10-17T15:13:29.059Z,88.98
2022-10-17T15:15:57.769Z,89.19
2022-10-17T15:18:24.276Z,89.50
2022-10-17T15:20:59.545Z,89.39
2022-10-17T15:23:33.227Z,89.08
2022-10-17T15:26:01.188Z,88.74
2022-10-17T15:28:27.800Z,88.97
2022-10-17T15:30:54.447Z,89.25
2022-10-17T15:33:21.237Z,89.32
2022-10-17T15:35:48.060Z,89.23
2022-10-17T15:38:18.000Z,89.42
2022-10-17T15:40:46.126Z,89.87
2022-10-17T15:43:15.018Z,90.17
2022-10-17T15:45:43.891Z,90.43
2022-10-17T15:48:18.746Z,90.49
2022-10-17T15:50:45.790Z,90.76
2022-10-17T15:53:12.844Z,90.86
2022-10-17T15:55:39.549Z,91.02
2022-10-17T15:58:06.327Z,91.70
2022-10-17T16:00:32.918Z,92.22
2022-10-17T16:03:00.505Z,92.57
2022-10-17T16:05:27.195Z,92.67
2022-10-17T16:07:54.218Z,92.64
2022-10-17T16:10:21.433Z,92.91
2022-10-17T16:12:49.840Z,92.91
2022-10-17T16:15:19.781Z,93.24
2022-10-17T16:17:46.260Z,93.45
2022-10-17T16:20:13.774Z,93.63
2022-10-17T16:22:42.823Z,93.64
2022-10-17T16:25:22.450Z,93.97
2022-10-17T16:27:51.169Z,93.91
2022-10-17T16:30:18.133Z,94.19
2022-10-17T16:32:45.816Z,94.20
2022-10-17T16:35:17.931Z,94.28
2022-10-17T16:37:45.012Z,94.16
2022-10-17T16:40:12.787Z,94.27
2022-10-17T16:42:39.565Z,94.19
2022-10-17T16:45:06.725Z,94.11
2022-10-17T16:47:33.300Z,94.14
2022-10-17T16:49:59.956Z,94.33
2022-10-17T16:52:26.547Z,94.42
2022-10-17T16:54:53.236Z,94.38
2022-10-17T16:57:20.680Z,94.34
2022-10-17T16:59:47.192Z,94.26
2022-10-17T17:02:16.363Z,94.42
2022-10-17T17:04:45.565Z,94.57
2022-10-17T17:07:12.216Z,94.63
2022-10-17T17:09:39.607Z,94.56
2022-10-17T17:12:06.359Z,94.58
2022-10-17T17:14:32.844Z,94.72
2022-10-17T17:16:59.795Z,94.94
2022-10-17T17:19:26.753Z,95.01
2022-10-17T17:21:53.243Z,95.21
2022-10-17T17:24:21.585Z,95.36
2022-10-17T17:26:55.742Z,95.52
2022-10-17T17:29:23.488Z,95.64
2022-10-17T17:31:50.734Z,95.73
2022-10-17T17:34:18.394Z,95.76
2022-10-17T17:36:45.284Z,95.86
2022-10-17T17:39:13.684Z,95.99
2022-10-17T17:41:41.175Z,96.24
2022-10-17T17:44:12.421Z,96.35
2022-10-17T17:46:43.591Z,96.41
2022-10-17T17:49:11.585Z,96.51
2022-10-17T17:51:38.973Z,96.57
2022-10-17T17:54:05.554Z,96.59
2022-10-17T17:56:32.337Z,96.66
2022-10-17T17:59:01.059Z,96.67
2022-10-17T18:01:36.824Z,96.99
2022-10-17T18:04:05.124Z,97.01
2022-10-17T18:06:31.651Z,97.00
2022-10-17T18:08:59.235Z,97.15
2022-10-17T18:11:27.407Z,97.42
2022-10-17T18:13:58.853Z,97.49
2022-10-17T18:16:26.632Z,97.57
2022-10-17T18:18:53.740Z,97.64
2022-10-17T18:21:20.479Z,97.85
2022-10-17T18:23:48.731Z,97.98
2022-10-17T18:26:15.788Z,98.23
2022-10-17T18:28:43.572Z,98.41
2022-10-17T18:31:16.013Z,98.54
2022-10-17T18:33:45.689Z,98.53
2022-10-17T18:36:14.982Z,98.61
2022-10-17T18:38:41.898Z,98.57
2022-10-17T18:41:13.934Z,98.77
2022-10-17T18:43:41.951Z,98.98
2022-10-17T18:46:27.672Z,98.94
2022-10-17T18:48:54.825Z,99.13
2022-10-17T18:51:24.225Z,99.25
2022-10-17T18:53:53.085Z,99.31
2022-10-17T18:56:20.581Z,99.23
2022-10-17T18:58:47.185Z,99.10
2022-10-17T19:01:19.817Z,99.03
2022-10-17T19:03:48.757Z,99.09
2022-10-17T19:06:18.219Z,98.83
2022-10-17T19:08:46.158Z,98.92
2022-10-17T19:11:21.095Z,99.02
2022-10-17T19:13:48.657Z,99.07
2022-10-17T19:16:22.216Z,99.06
2022-10-17T19:18:53.951Z,99.19
2022-10-17T19:21:21.868Z,99.28
2022-10-17T19:23:53.270Z,99.31
2022-10-17T19:26:20.735Z,99.39
2022-10-17T19:28:47.888Z,99.39
2022-10-17T19:31:17.013Z,99.38
2022-10-17T19:33:44.580Z,99.38
2022-10-17T19:36:12.279Z,99.36
2022-10-17T19:38:39.699Z,99.34
2022-10-17T19:41:11.545Z,99.27
2022-10-17T19:43:40.825Z,99.27
2022-10-17T19:46:16.429Z,99.25
2022-10-17T19:48:43.317Z,99.08
2022-10-17T19:51:15.417Z,98.93
2022-10-17T19:53:42.836Z,98.69
2022-10-17T19:56:11.801Z,98.77
2022-10-17T19:58:45.126Z,98.83
2022-10-17T20:01:20.700Z,98.87
2022-10-17T20:03:47.947Z,98.70
2022-10-17T20:06:15.261Z,98.67
2022-10-17T20:08:42.458Z,98.61
2022-10-17T20:11:12.905Z,98.65
2022-10-17T20:13:40.542Z,98.65
2022-10-17T20:16:09.342Z,98.79
2022-10-17T20:18:36.012Z,98.93
2022-10-17T20:21:05.574Z,98.76
2022-10-17T20:23:32.411Z,98.73
2022-10-17T20:26:13.520Z,98.86
2022-10-17T20:28:49.039Z,98.88
2022-10-17T20:31:15.800Z,98.82
2022-10-17T20:33:42.483Z,98.88
2022-10-17T20:36:10.801Z,98.94
2022-10-17T20:38:37.605Z,98.96
2022-10-17T20:41:06.858Z,99.02
2022-10-17T20:43:34.538Z,99.08
2022-10-17T20:46:09.668Z,99.12
2022-10-17T20:48:52.351Z,99.17
2022-10-17T20:51:19.312Z,99.24
2022-10-17T20:53:46.020Z,99.13
2022-10-17T20:56:21.234Z,99.15
2022-10-17T20:58:52.890Z,99.26
2022-10-17T21:01:19.627Z,99.31
2022-10-17T21:03:46.841Z,99.28
2022-10-17T21:06:14.235Z,99.26
2022-10-17T21:08:41.390Z,99.30
2022-10-17T21:11:12.594Z,99.19
2022-10-17T21:13:39.571Z,99.31
2022-10-17T21:16:10.737Z,99.25
2022-10-17T21:18:37.637Z,99.27
2022-10-17T21:21:09.133Z,99.39
2022-10-17T21:23:35.813Z,99.51
2022-10-17T21:26:03.923Z,99.49
2022-10-17T21:28:31.082Z,99.49
2022-10-17T21:31:08.310Z,99.52
2022-10-17T21:33:34.935Z,99.57
2022-10-17T21:36:01.487Z,99.62
2022-10-17T21:38:28.063Z,99.68
2022-10-17T21:40:56.083Z,99.80
2022-10-17T21:43:22.831Z,99.78
2022-10-17T21:45:49.350Z,99.85
2022-10-17T21:48:15.847Z,99.82
2022-10-17T21:50:42.396Z,99.85
2022-10-17T21:53:09.191Z,99.90
2022-10-17T21:55:37.624Z,99.99
2022-10-17T21:58:04.847Z,99.99
